Currituck — AEFR — position and weather

sailwx.info

Track history (hours):
 
Tides and Currents Weather Stations Pressure Air Temp Water Temp Dewpoint Dewpoint Depression Visibility Wind Speed Wind Dir Waves Ship Positions

Currituck

Last reported at 2015-Jul-04 11:26 UTC. Time now 2015-Jul-05 02:45 UTC.
Position N 40°11' W 074°00'.

Length 45 m; draft 3 m.

Type: Dredging. MMSI: 369970446.

Date/timePositionNaut miles runAvg speedWind from/ knotsBaromVisibWave heightAir tempDewpointWater temp
2015-Jul-04 11:26N 40°11' W 074°00'0 0.0
2015-Jul-04 10:27N 40°11' W 074°00'0 0.4
2015-Jul-04 09:34N 40°11' W 074°01'0 0.0
2015-Jul-04 08:34N 40°11' W 074°01'0 0.0
2015-Jul-04 07:33N 40°11' W 074°01'0 0.0
2015-Jul-04 06:27N 40°11' W 074°01'0 0.0
2015-Jul-04 05:34N 40°11' W 074°01'0 0.0
2015-Jul-04 04:34N 40°11' W 074°01'0 0.0
2015-Jul-04 03:33N 40°11' W 074°01'0 0.0
2015-Jul-04 02:33N 40°11' W 074°01'0 0.0
2015-Jul-04 01:31N 40°11' W 074°01'0 0.0
2015-Jul-04 00:33N 40°11' W 074°01'0 0.0
2015-Jul-03 23:33N 40°11' W 074°01'0 0.0
2015-Jul-03 22:33N 40°11' W 074°01'0 0.0
2015-Jul-03 14:33N 40°11' W 074°00'0 0.0
2015-Jul-03 13:29N 40°11' W 074°00'0 0.1
2015-Jul-03 12:31N 40°11' W 074°00'0 0.0
2015-Jul-03 11:34N 40°11' W 074°00'0 0.1
2015-Jul-03 09:33N 40°11' W 074°01'0 0.0
2015-Jul-03 08:31N 40°11' W 074°01'0 0.0
2015-Jul-03 06:12N 40°11' W 074°01'0 0.0
2015-Jul-03 05:30N 40°11' W 074°01'0 0.0
2015-Jul-03 02:33N 40°11' W 074°01'0 0.0
2015-Jul-03 00:34N 40°11' W 074°01'0 0.0
2015-Jul-02 23:32N 40°11' W 074°01'0 0.0
2015-Jul-02 22:16N 40°11' W 074°01'0 0.0
2015-Jul-02 21:32N 40°11' W 074°01'0 0.0
2015-Jul-02 20:22N 40°11' W 074°01'0 0.3
2015-Jul-02 19:28N 40°11' W 074°00'0 0.0
2015-Jul-02 18:32N 40°11' W 074°00'0 0.1
2015-Jul-02 17:30N 40°11' W 074°00'0 0.0
2015-Jul-02 14:31N 40°11' W 074°00'0 0.1
2015-Jul-02 13:30N 40°11' W 074°01'0 0.1
2015-Jul-02 12:29N 40°11' W 074°00'0 0.0
2015-Jul-02 11:25N 40°11' W 074°00'0 0.0
2015-Jul-02 10:33N 40°11' W 074°00'0 0.0
2015-Jul-01 20:25N 40°12' W 074°00'0 0.0
2015-Jul-01 07:15N 40°11' W 074°01'0 0.0
2015-Jul-01 06:15N 40°11' W 074°00'0 0.3
2015-Jul-01 05:15N 40°11' W 074°00'0 0.5
2015-Jul-01 04:33N 40°11' W 074°00'0 0.0
2015-Jul-01 03:33N 40°11' W 074°00'0 0.4
2015-Jul-01 02:32N 40°12' W 074°00'0 0.4
2015-Jul-01 01:33N 40°11' W 074°00'0 0.0
2015-Jul-01 00:34N 40°11' W 074°00'0 0.0
2015-Jun-30 23:33N 40°11' W 074°00'0 0.2
2015-Jun-30 22:10N 40°11' W 074°01'0 0.4
2015-Jun-30 21:33N 40°11' W 074°00'0 0.1
2015-Jun-30 20:30N 40°11' W 074°00'0 0.3
2015-Jun-30 19:34N 40°12' W 074°00'0 0.3
2015-Jun-30 18:22N 40°11' W 074°00'0 0.2
2015-Jun-30 17:30N 40°11' W 074°00'0 0.2
2015-Jun-30 16:26N 40°11' W 074°00'0 0.3
2015-Jun-30 15:31N 40°11' W 074°00'0 0.3
2015-Jun-30 14:33N 40°11' W 074°00'0 0.0
2015-Jun-30 13:33N 40°11' W 074°00'0 0.0
2015-Jun-30 12:33N 40°11' W 074°00'0 0.3
2015-Jun-30 11:33N 40°11' W 074°01'0 0.0
2015-Jun-30 10:33N 40°11' W 074°01'0 0.3
2015-Jun-30 09:33N 40°11' W 074°00'0 0.0
2015-Jun-30 08:33N 40°11' W 074°00'0 0.0
2015-Jun-30 07:33N 40°11' W 074°00'0 0.4
2015-Jun-30 06:33N 40°12' W 074°00'0 0.2
2015-Jun-30 05:33N 40°11' W 074°00'0 0.2
2015-Jun-30 04:33N 40°11' W 074°00'0 0.1
2015-Jun-30 03:33N 40°11' W 074°01'0 0.1
2015-Jun-30 02:33N 40°11' W 074°00'0 0.1
2015-Jun-30 00:27N 40°12' W 074°00'0 0.3
2015-Jun-29 23:19N 40°11' W 074°00'0 0.0
2015-Jun-29 22:13N 40°11' W 074°00'0 0.4
2015-Jun-29 21:33N 40°11' W 074°01'5 0.2
2015-Jun-28 18:33N 40°06' W 074°01'0 0.3
2015-Jun-28 17:33N 40°06' W 074°01'0 0.4
2015-Jun-28 16:32N 40°06' W 074°02'0 0.0
2015-Jun-28 15:29N 40°06' W 074°02'0 0.1
2015-Jun-28 14:27N 40°06' W 074°02'5 0.5
2015-Jun-28 03:06N 40°11' W 074°01'0 0.0
2015-Jun-27 21:31N 40°11' W 074°01'4 4.6
2015-Jun-27 20:33N 40°07' W 074°01'1 1.1
2015-Jun-27 19:32N 40°06' W 074°02'0 0.1
2015-Jun-27 18:22N 40°06' W 074°02'1 0.7
2015-Jun-27 17:32N 40°07' W 074°02'1 0.3
2015-Jun-27 15:26N 40°06' W 074°02'0 0.2
2015-Jun-27 14:23N 40°06' W 074°02'0 0.1
2015-Jun-27 13:33N 40°06' W 074°02'0 0.0
2015-Jun-27 12:26N 40°06' W 074°02'0 0.1
2015-Jun-27 11:27N 40°06' W 074°02'5 4.9
2015-Jun-27 10:22N 40°11' W 074°00'1 1.1
2015-Jun-27 09:24N 40°10' W 074°00'4 1.3
2015-Jun-27 06:12N 40°06' W 074°02'0 0.0
2015-Jun-27 02:14N 40°06' W 074°02'0 0.0
2015-Jun-27 01:05N 40°06' W 074°02'3 0.2
2015-Jun-26 10:30N 40°09' W 074°01'0 0.2
2015-Jun-26 09:10N 40°10' W 074°01'4 1.0
2015-Jun-26 05:24N 40°06' W 074°02'0 0.0
2015-Jun-26 02:16N 40°06' W 074°02'0 0.0
2015-Jun-26 01:33N 40°06' W 074°02'0 0.0
2015-Jun-26 00:33N 40°06' W 074°02'0 0.1
2015-Jun-25 23:33N 40°06' W 074°02'3 3.1
2015-Jun-25 22:33N 40°09' W 074°01'3 0.5
2015-Jun-25 16:05N 40°06' W 074°02'0 0.0
2015-Jun-25 11:33N 40°06' W 074°02'3 2.7
2015-Jun-25 10:33N 40°09' W 074°01'0 0.3
2015-Jun-25 09:05N 40°09' W 074°01'3 5.2
2015-Jun-25 08:33N 40°06' W 074°02'5 1.3
2015-Jun-25 04:30N 40°11' W 074°01'0 0.0
2015-Jun-25 03:33N 40°11' W 074°01'0 0.0
2015-Jun-25 02:33N 40°11' W 074°01'0 0.0
2015-Jun-25 01:32N 40°11' W 074°01'0 0.0
2015-Jun-25 00:33N 40°11' W 074°01'0 0.0
2015-Jun-24 23:34N 40°11' W 074°01'0 0.0
2015-Jun-24 22:30N 40°11' W 074°01'0 0.0
2015-Jun-24 21:28N 40°11' W 074°01'3 0.5
2015-Jun-24 16:20N 40°09' W 074°01'3 3.1
2015-Jun-24 15:31N 40°11' W 074°01'0 0.0
2015-Jun-24 14:25N 40°11' W 074°01'0 0.0
2015-Jun-24 13:32N 40°11' W 074°01'  
Track history (hours):
 
Tides and Currents Weather Stations Pressure Air Temp Water Temp Dewpoint Dewpoint Depression Visibility Wind Speed Wind Dir Waves Ship Positions

Currituck

Last reported at 2015-Jul-04 11:26 UTC. Time now 2015-Jul-05 02:45 UTC.
Position N 40°11' W 074°00'.

Length 45 m; draft 3 m.

Type: Dredging. MMSI: 369970446.

Date/timePositionNaut miles runAvg speedWind from/ knotsBaromVisibWave heightAir tempDewpointWater temp
2015-Jul-04 11:26N 40°11' W 074°00'0 0.0
2015-Jul-04 10:27N 40°11' W 074°00'0 0.4
2015-Jul-04 09:34N 40°11' W 074°01'0 0.0
2015-Jul-04 08:34N 40°11' W 074°01'0 0.0
2015-Jul-04 07:33N 40°11' W 074°01'0 0.0
2015-Jul-04 06:27N 40°11' W 074°01'0 0.0
2015-Jul-04 05:34N 40°11' W 074°01'0 0.0
2015-Jul-04 04:34N 40°11' W 074°01'0 0.0
2015-Jul-04 03:33N 40°11' W 074°01'0 0.0
2015-Jul-04 02:33N 40°11' W 074°01'0 0.0
2015-Jul-04 01:31N 40°11' W 074°01'0 0.0
2015-Jul-04 00:33N 40°11' W 074°01'0 0.0
2015-Jul-03 23:33N 40°11' W 074°01'0 0.0
2015-Jul-03 22:33N 40°11' W 074°01'0 0.0
2015-Jul-03 14:33N 40°11' W 074°00'0 0.0
2015-Jul-03 13:29N 40°11' W 074°00'0 0.1
2015-Jul-03 12:31N 40°11' W 074°00'0 0.0
2015-Jul-03 11:34N 40°11' W 074°00'0 0.1
2015-Jul-03 09:33N 40°11' W 074°01'0 0.0
2015-Jul-03 08:31N 40°11' W 074°01'0 0.0
2015-Jul-03 06:12N 40°11' W 074°01'0 0.0
2015-Jul-03 05:30N 40°11' W 074°01'0 0.0
2015-Jul-03 02:33N 40°11' W 074°01'0 0.0
2015-Jul-03 00:34N 40°11' W 074°01'0 0.0
2015-Jul-02 23:32N 40°11' W 074°01'0 0.0
2015-Jul-02 22:16N 40°11' W 074°01'0 0.0
2015-Jul-02 21:32N 40°11' W 074°01'0 0.0
2015-Jul-02 20:22N 40°11' W 074°01'0 0.3
2015-Jul-02 19:28N 40°11' W 074°00'0 0.0
2015-Jul-02 18:32N 40°11' W 074°00'0 0.1
2015-Jul-02 17:30N 40°11' W 074°00'0 0.0
2015-Jul-02 14:31N 40°11' W 074°00'0 0.1
2015-Jul-02 13:30N 40°11' W 074°01'0 0.1
2015-Jul-02 12:29N 40°11' W 074°00'0 0.0
2015-Jul-02 11:25N 40°11' W 074°00'0 0.0
2015-Jul-02 10:33N 40°11' W 074°00'0 0.0
2015-Jul-01 20:25N 40°12' W 074°00'0 0.0
2015-Jul-01 07:15N 40°11' W 074°01'0 0.0
2015-Jul-01 06:15N 40°11' W 074°00'0 0.3
2015-Jul-01 05:15N 40°11' W 074°00'0 0.5
2015-Jul-01 04:33N 40°11' W 074°00'0 0.0
2015-Jul-01 03:33N 40°11' W 074°00'0 0.4
2015-Jul-01 02:32N 40°12' W 074°00'0 0.4
2015-Jul-01 01:33N 40°11' W 074°00'0 0.0
2015-Jul-01 00:34N 40°11' W 074°00'0 0.0
2015-Jun-30 23:33N 40°11' W 074°00'0 0.2
2015-Jun-30 22:10N 40°11' W 074°01'0 0.4
2015-Jun-30 21:33N 40°11' W 074°00'0 0.1
2015-Jun-30 20:30N 40°11' W 074°00'0 0.3
2015-Jun-30 19:34N 40°12' W 074°00'0 0.3
2015-Jun-30 18:22N 40°11' W 074°00'0 0.2
2015-Jun-30 17:30N 40°11' W 074°00'0 0.2
2015-Jun-30 16:26N 40°11' W 074°00'0 0.3
2015-Jun-30 15:31N 40°11' W 074°00'0 0.3
2015-Jun-30 14:33N 40°11' W 074°00'0 0.0
2015-Jun-30 13:33N 40°11' W 074°00'0 0.0
2015-Jun-30 12:33N 40°11' W 074°00'0 0.3
2015-Jun-30 11:33N 40°11' W 074°01'0 0.0
2015-Jun-30 10:33N 40°11' W 074°01'0 0.3
2015-Jun-30 09:33N 40°11' W 074°00'0 0.0
2015-Jun-30 08:33N 40°11' W 074°00'0 0.0
2015-Jun-30 07:33N 40°11' W 074°00'0 0.4
2015-Jun-30 06:33N 40°12' W 074°00'0 0.2
2015-Jun-30 05:33N 40°11' W 074°00'0 0.2
2015-Jun-30 04:33N 40°11' W 074°00'0 0.1
2015-Jun-30 03:33N 40°11' W 074°01'0 0.1
2015-Jun-30 02:33N 40°11' W 074°00'0 0.1
2015-Jun-30 00:27N 40°12' W 074°00'0 0.3
2015-Jun-29 23:19N 40°11' W 074°00'0 0.0
2015-Jun-29 22:13N 40°11' W 074°00'0 0.4
2015-Jun-29 21:33N 40°11' W 074°01'5 0.2
2015-Jun-28 18:33N 40°06' W 074°01'0 0.3
2015-Jun-28 17:33N 40°06' W 074°01'0 0.4
2015-Jun-28 16:32N 40°06' W 074°02'0 0.0
2015-Jun-28 15:29N 40°06' W 074°02'0 0.1
2015-Jun-28 14:27N 40°06' W 074°02'5 0.5
2015-Jun-28 03:06N 40°11' W 074°01'0 0.0
2015-Jun-27 21:31N 40°11' W 074°01'4 4.6
2015-Jun-27 20:33N 40°07' W 074°01'1 1.1
2015-Jun-27 19:32N 40°06' W 074°02'0 0.1
2015-Jun-27 18:22N 40°06' W 074°02'1 0.7
2015-Jun-27 17:32N 40°07' W 074°02'1 0.3
2015-Jun-27 15:26N 40°06' W 074°02'0 0.2
2015-Jun-27 14:23N 40°06' W 074°02'0 0.1
2015-Jun-27 13:33N 40°06' W 074°02'0 0.0
2015-Jun-27 12:26N 40°06' W 074°02'0 0.1
2015-Jun-27 11:27N 40°06' W 074°02'5 4.9
2015-Jun-27 10:22N 40°11' W 074°00'1 1.1
2015-Jun-27 09:24N 40°10' W 074°00'4 1.3
2015-Jun-27 06:12N 40°06' W 074°02'0 0.0
2015-Jun-27 02:14N 40°06' W 074°02'0 0.0
2015-Jun-27 01:05N 40°06' W 074°02'3 0.2
2015-Jun-26 10:30N 40°09' W 074°01'0 0.2
2015-Jun-26 09:10N 40°10' W 074°01'4 1.0
2015-Jun-26 05:24N 40°06' W 074°02'0 0.0
2015-Jun-26 02:16N 40°06' W 074°02'0 0.0
2015-Jun-26 01:33N 40°06' W 074°02'0 0.0
2015-Jun-26 00:33N 40°06' W 074°02'0 0.1
2015-Jun-25 23:33N 40°06' W 074°02'3 3.1
2015-Jun-25 22:33N 40°09' W 074°01'3 0.5
2015-Jun-25 16:05N 40°06' W 074°02'0 0.0
2015-Jun-25 11:33N 40°06' W 074°02'3 2.7
2015-Jun-25 10:33N 40°09' W 074°01'0 0.3
2015-Jun-25 09:05N 40°09' W 074°01'3 5.2
2015-Jun-25 08:33N 40°06' W 074°02'5 1.3
2015-Jun-25 04:30N 40°11' W 074°01'0 0.0
2015-Jun-25 03:33N 40°11' W 074°01'0 0.0
2015-Jun-25 02:33N 40°11' W 074°01'0 0.0
2015-Jun-25 01:32N 40°11' W 074°01'0 0.0
2015-Jun-25 00:33N 40°11' W 074°01'0 0.0
2015-Jun-24 23:34N 40°11' W 074°01'0 0.0
2015-Jun-24 22:30N 40°11' W 074°01'0 0.0
2015-Jun-24 21:28N 40°11' W 074°01'3 0.5
2015-Jun-24 16:20N 40°09' W 074°01'3 3.1
2015-Jun-24 15:31N 40°11' W 074°01'0 0.0
2015-Jun-24 14:25N 40°11' W 074°01'0 0.0
2015-Jun-24 13:32N 40°11' W 074°01'  

Dump ship's entire track history